sensor_id;sensor_type;location;lat;lon;timestamp;pressure;altitude;pressure_sealevel;temperature;humidity
19108;BME280;9686;48.832;9.126;2023-06-10T00:01:40;97779.81;;;17.93;nan
19108;BME280;9686;48.832;9.126;2023-06-10T00:04:06;97778.28;;;17.87;nan
19108;BME280;9686;48.832;9.126;2023-06-10T00:06:32;97777.84;;;17.98;nan
19108;BME280;9686;48.832;9.126;2023-06-10T00:09:04;97769.25;;;17.93;nan
19108;BME280;9686;48.832;9.126;2023-06-10T00:11:31;97774.06;;;17.83;nan
19108;BME280;9686;48.832;9.126;2023-06-10T00:13:57;97777.09;;;17.74;nan
19108;BME280;9686;48.832;9.126;2023-06-10T00:16:23;97780.88;;;17.88;nan
19108;BME280;9686;48.832;9.126;2023-06-10T00:18:49;97779.09;;;17.89;nan
19108;BME280;9686;48.832;9.126;2023-06-10T00:21:16;97776.19;;;17.75;nan
19108;BME280;9686;48.832;9.126;2023-06-10T00:23:41;97774.34;;;17.77;nan
19108;BME280;9686;48.832;9.126;2023-06-10T00:26:07;97776.78;;;17.81;nan
19108;BME280;9686;48.832;9.126;2023-06-10T00:28:33;97772.22;;;17.63;nan
19108;BME280;9686;48.832;9.126;2023-06-10T00:30:58;97776.97;;;17.55;nan
19108;BME280;9686;48.832;9.126;2023-06-10T00:33:23;97774.47;;;17.52;nan
19108;BME280;9686;48.832;9.126;2023-06-10T00:35:49;97782.72;;;17.43;nan
19108;BME280;9686;48.832;9.126;2023-06-10T00:38:14;97784.41;;;17.45;nan
19108;BME280;9686;48.832;9.126;2023-06-10T00:40:40;97773.22;;;17.61;nan
19108;BME280;9686;48.832;9.126;2023-06-10T00:43:06;97769.97;;;17.54;nan
19108;BME280;9686;48.832;9.126;2023-06-10T00:45:31;97773.66;;;17.50;nan
19108;BME280;9686;48.832;9.126;2023-06-10T00:47:58;97778.94;;;17.28;nan
19108;BME280;9686;48.832;9.126;2023-06-10T00:50:23;97780.47;;;17.34;nan
19108;BME280;9686;48.832;9.126;2023-06-10T00:52:48;97777.44;;;17.43;nan
19108;BME280;9686;48.832;9.126;2023-06-10T00:55:16;97768.53;;;17.47;nan
19108;BME280;9686;48.832;9.126;2023-06-10T00:57:43;97779.88;;;17.49;nan
19108;BME280;9686;48.832;9.126;2023-06-10T01:00:10;97775.78;;;17.40;nan
19108;BME280;9686;48.832;9.126;2023-06-10T01:02:35;97774.53;;;17.29;nan
19108;BME280;9686;48.832;9.126;2023-06-10T01:05:01;97777.69;;;17.37;nan
19108;BME280;9686;48.832;9.126;2023-06-10T01:07:38;97771.16;;;17.25;nan
19108;BME280;9686;48.832;9.126;2023-06-10T01:10:23;97774.91;;;17.19;nan
19108;BME280;9686;48.832;9.126;2023-06-10T01:12:56;97778.81;;;17.31;nan
19108;BME280;9686;48.832;9.126;2023-06-10T01:15:24;97776.78;;;17.38;nan
19108;BME280;9686;48.832;9.126;2023-06-10T01:20:22;97780.09;;;17.21;nan
19108;BME280;9686;48.832;9.126;2023-06-10T01:22:49;97772.09;;;17.24;nan
19108;BME280;9686;48.832;9.126;2023-06-10T01:28:44;97766.69;;;17.27;nan
19108;BME280;9686;48.832;9.126;2023-06-10T01:31:36;97768.06;;;17.14;nan
19108;BME280;9686;48.832;9.126;2023-06-10T01:34:07;97772.44;;;17.15;nan
19108;BME280;9686;48.832;9.126;2023-06-10T01:36:34;97775.00;;;16.94;nan
19108;BME280;9686;48.832;9.126;2023-06-10T01:39:00;97770.19;;;17.27;nan
19108;BME280;9686;48.832;9.126;2023-06-10T01:41:28;97775.69;;;17.21;nan
19108;BME280;9686;48.832;9.126;2023-06-10T01:43:54;97780.66;;;17.29;nan
19108;BME280;9686;48.832;9.126;2023-06-10T01:46:19;97776.69;;;17.19;nan
19108;BME280;9686;48.832;9.126;2023-06-10T01:48:46;97778.97;;;17.05;nan
19108;BME280;9686;48.832;9.126;2023-06-10T01:51:12;97785.16;;;17.04;nan
19108;BME280;9686;48.832;9.126;2023-06-10T01:53:37;97791.72;;;16.93;nan
19108;BME280;9686;48.832;9.126;2023-06-10T01:56:02;97784.50;;;16.75;nan
19108;BME280;9686;48.832;9.126;2023-06-10T01:58:27;97792.00;;;16.61;nan
19108;BME280;9686;48.832;9.126;2023-06-10T02:00:53;97787.94;;;16.52;nan
19108;BME280;9686;48.832;9.126;2023-06-10T02:03:18;97793.81;;;16.35;nan
19108;BME280;9686;48.832;9.126;2023-06-10T02:05:43;97798.47;;;16.52;nan
19108;BME280;9686;48.832;9.126;2023-06-10T02:08:09;97800.66;;;16.64;nan
19108;BME280;9686;48.832;9.126;2023-06-10T02:10:34;97792.97;;;16.58;nan
19108;BME280;9686;48.832;9.126;2023-06-10T02:13:00;97791.78;;;16.44;nan
19108;BME280;9686;48.832;9.126;2023-06-10T02:15:25;97787.78;;;16.57;nan
19108;BME280;9686;48.832;9.126;2023-06-10T02:17:51;97798.47;;;16.52;nan
19108;BME280;9686;48.832;9.126;2023-06-10T02:20:17;97799.50;;;16.48;nan
19108;BME280;9686;48.832;9.126;2023-06-10T02:22:42;97800.25;;;16.52;nan
19108;BME280;9686;48.832;9.126;2023-06-10T02:25:08;97806.09;;;16.35;nan
19108;BME280;9686;48.832;9.126;2023-06-10T02:27:33;97810.72;;;16.53;nan
19108;BME280;9686;48.832;9.126;2023-06-10T02:29:59;97810.91;;;16.49;nan
19108;BME280;9686;48.832;9.126;2023-06-10T02:32:24;97819.06;;;16.41;nan
19108;BME280;9686;48.832;9.126;2023-06-10T02:34:50;97813.31;;;16.30;nan
19108;BME280;9686;48.832;9.126;2023-06-10T02:37:16;97811.59;;;16.29;nan
19108;BME280;9686;48.832;9.126;2023-06-10T02:39:42;97821.19;;;16.30;nan
19108;BME280;9686;48.832;9.126;2023-06-10T02:42:07;97821.75;;;16.15;nan
19108;BME280;9686;48.832;9.126;2023-06-10T02:44:33;97822.69;;;16.12;nan
19108;BME280;9686;48.832;9.126;2023-06-10T02:46:58;97821.59;;;16.19;nan
19108;BME280;9686;48.832;9.126;2023-06-10T02:49:24;97819.53;;;16.27;nan
19108;BME280;9686;48.832;9.126;2023-06-10T02:51:50;97822.06;;;16.30;nan
19108;BME280;9686;48.832;9.126;2023-06-10T02:54:19;97819.88;;;16.18;nan
19108;BME280;9686;48.832;9.126;2023-06-10T02:56:44;97820.03;;;16.14;nan
19108;BME280;9686;48.832;9.126;2023-06-10T02:59:11;97824.22;;;16.19;nan
19108;BME280;9686;48.832;9.126;2023-06-10T03:01:36;97821.69;;;16.16;nan
19108;BME280;9686;48.832;9.126;2023-06-10T03:04:03;97820.38;;;16.03;nan
19108;BME280;9686;48.832;9.126;2023-06-10T03:06:28;97817.66;;;16.06;nan
19108;BME280;9686;48.832;9.126;2023-06-10T03:08:54;97829.78;;;16.10;nan
19108;BME280;9686;48.832;9.126;2023-06-10T03:11:19;97831.00;;;16.00;nan
19108;BME280;9686;48.832;9.126;2023-06-10T03:13:45;97827.91;;;15.89;nan
19108;BME280;9686;48.832;9.126;2023-06-10T03:16:10;97838.59;;;15.83;nan
19108;BME280;9686;48.832;9.126;2023-06-10T03:18:37;97825.09;;;15.93;nan
19108;BME280;9686;48.832;9.126;2023-06-10T03:21:03;97841.13;;;15.86;nan
19108;BME280;9686;48.832;9.126;2023-06-10T03:23:28;97845.50;;;15.85;nan
19108;BME280;9686;48.832;9.126;2023-06-10T03:25:54;97845.44;;;15.88;nan
19108;BME280;9686;48.832;9.126;2023-06-10T03:28:20;97842.75;;;15.90;nan
19108;BME280;9686;48.832;9.126;2023-06-10T03:30:46;97844.38;;;15.94;nan
19108;BME280;9686;48.832;9.126;2023-06-10T03:33:11;97855.22;;;15.83;nan
19108;BME280;9686;48.832;9.126;2023-06-10T03:35:37;97857.56;;;15.92;nan
19108;BME280;9686;48.832;9.126;2023-06-10T03:38:02;97852.59;;;16.10;nan
19108;BME280;9686;48.832;9.126;2023-06-10T03:40:27;97849.19;;;16.06;nan
19108;BME280;9686;48.832;9.126;2023-06-10T03:42:53;97866.09;;;15.99;nan
19108;BME280;9686;48.832;9.126;2023-06-10T03:45:18;97851.28;;;15.96;nan
19108;BME280;9686;48.832;9.126;2023-06-10T03:47:43;97865.84;;;16.07;nan
19108;BME280;9686;48.832;9.126;2023-06-10T03:50:10;97861.75;;;15.98;nan
19108;BME280;9686;48.832;9.126;2023-06-10T03:52:37;97856.06;;;16.10;nan
19108;BME280;9686;48.832;9.126;2023-06-10T03:55:03;97860.03;;;15.97;nan
19108;BME280;9686;48.832;9.126;2023-06-10T03:57:28;97865.28;;;15.97;nan
19108;BME280;9686;48.832;9.126;2023-06-10T03:59:54;97866.00;;;16.02;nan
19108;BME280;9686;48.832;9.126;2023-06-10T04:02:19;97866.41;;;16.16;nan
19108;BME280;9686;48.832;9.126;2023-06-10T04:04:44;97869.59;;;15.99;nan
19108;BME280;9686;48.832;9.126;2023-06-10T04:07:10;97872.72;;;16.11;nan
19108;BME280;9686;48.832;9.126;2023-06-10T04:09:36;97872.28;;;15.98;nan
19108;BME280;9686;48.832;9.126;2023-06-10T04:12:02;97869.84;;;16.18;nan
19108;BME280;9686;48.832;9.126;2023-06-10T04:14:27;97868.97;;;16.18;nan
19108;BME280;9686;48.832;9.126;2023-06-10T04:16:53;97865.63;;;16.13;nan
19108;BME280;9686;48.832;9.126;2023-06-10T04:19:18;97864.59;;;16.18;nan
19108;BME280;9686;48.832;9.126;2023-06-10T04:21:43;97862.66;;;16.23;nan
19108;BME280;9686;48.832;9.126;2023-06-10T04:24:09;97861.84;;;16.21;nan
19108;BME280;9686;48.832;9.126;2023-06-10T04:26:37;97870.53;;;16.23;nan
19108;BME280;9686;48.832;9.126;2023-06-10T04:29:03;97863.06;;;16.36;nan
19108;BME280;9686;48.832;9.126;2023-06-10T04:31:28;97869.13;;;16.40;nan
19108;BME280;9686;48.832;9.126;2023-06-10T04:33:53;97872.91;;;16.56;nan
19108;BME280;9686;48.832;9.126;2023-06-10T04:36:19;97877.88;;;16.63;nan
19108;BME280;9686;48.832;9.126;2023-06-10T04:38:45;97876.75;;;16.72;nan
19108;BME280;9686;48.832;9.126;2023-06-10T04:41:10;97879.59;;;16.66;nan
19108;BME280;9686;48.832;9.126;2023-06-10T04:43:36;97876.00;;;16.69;nan
19108;BME280;9686;48.832;9.126;2023-06-10T04:46:01;97881.00;;;16.76;nan
19108;BME280;9686;48.832;9.126;2023-06-10T04:48:27;97875.31;;;16.87;nan
19108;BME280;9686;48.832;9.126;2023-06-10T04:50:52;97875.91;;;16.95;nan
19108;BME280;9686;48.832;9.126;2023-06-10T04:53:17;97878.44;;;16.98;nan
19108;BME280;9686;48.832;9.126;2023-06-10T04:55:43;97881.94;;;16.99;nan
19108;BME280;9686;48.832;9.126;2023-06-10T04:58:09;97874.66;;;17.05;nan
19108;BME280;9686;48.832;9.126;2023-06-10T05:00:34;97869.19;;;17.10;nan
19108;BME280;9686;48.832;9.126;2023-06-10T05:02:59;97876.72;;;17.20;nan
19108;BME280;9686;48.832;9.126;2023-06-10T05:05:25;97870.03;;;17.34;nan
19108;BME280;9686;48.832;9.126;2023-06-10T05:07:50;97864.47;;;17.41;nan
19108;BME280;9686;48.832;9.126;2023-06-10T05:10:15;97866.84;;;17.49;nan
19108;BME280;9686;48.832;9.126;2023-06-10T05:12:41;97863.81;;;17.58;nan
19108;BME280;9686;48.832;9.126;2023-06-10T05:15:07;97872.25;;;17.68;nan
19108;BME280;9686;48.832;9.126;2023-06-10T05:17:33;97862.28;;;17.76;nan
19108;BME280;9686;48.832;9.126;2023-06-10T05:19:58;97865.56;;;17.81;nan
19108;BME280;9686;48.832;9.126;2023-06-10T05:22:24;97869.00;;;17.83;nan
19108;BME280;9686;48.832;9.126;2023-06-10T05:24:50;97866.09;;;17.89;nan
19108;BME280;9686;48.832;9.126;2023-06-10T05:27:16;97873.72;;;17.97;nan
19108;BME280;9686;48.832;9.126;2023-06-10T05:29:41;97877.69;;;18.07;nan
19108;BME280;9686;48.832;9.126;2023-06-10T05:32:07;97873.00;;;18.13;nan
19108;BME280;9686;48.832;9.126;2023-06-10T05:34:33;97878.88;;;18.20;nan
19108;BME280;9686;48.832;9.126;2023-06-10T05:36:58;97875.41;;;18.40;nan
19108;BME280;9686;48.832;9.126;2023-06-10T05:39:23;97881.81;;;18.55;nan
19108;BME280;9686;48.832;9.126;2023-06-10T05:41:49;97877.97;;;18.62;nan
19108;BME280;9686;48.832;9.126;2023-06-10T05:44:14;97869.44;;;18.77;nan
19108;BME280;9686;48.832;9.126;2023-06-10T05:46:39;97872.59;;;18.85;nan
19108;BME280;9686;48.832;9.126;2023-06-10T05:49:05;97874.88;;;18.93;nan
19108;BME280;9686;48.832;9.126;2023-06-10T05:51:30;97880.63;;;19.02;nan
19108;BME280;9686;48.832;9.126;2023-06-10T05:53:55;97888.03;;;19.13;nan
19108;BME280;9686;48.832;9.126;2023-06-10T05:56:21;97885.44;;;19.32;nan
19108;BME280;9686;48.832;9.126;2023-06-10T05:58:49;97882.72;;;19.33;nan
19108;BME280;9686;48.832;9.126;2023-06-10T06:01:14;97880.63;;;19.40;nan
19108;BME280;9686;48.832;9.126;2023-06-10T06:03:40;97884.00;;;19.62;nan
19108;BME280;9686;48.832;9.126;2023-06-10T06:06:05;97881.59;;;19.58;nan
19108;BME280;9686;48.832;9.126;2023-06-10T06:08:31;97874.44;;;19.60;nan
19108;BME280;9686;48.832;9.126;2023-06-10T06:10:57;97884.88;;;19.63;nan
19108;BME280;9686;48.832;9.126;2023-06-10T06:13:22;97885.56;;;19.66;nan
19108;BME280;9686;48.832;9.126;2023-06-10T06:15:48;97882.63;;;19.73;nan
19108;BME280;9686;48.832;9.126;2023-06-10T06:18:13;97883.91;;;19.83;nan
19108;BME280;9686;48.832;9.126;2023-06-10T06:20:40;97886.72;;;19.97;nan
19108;BME280;9686;48.832;9.126;2023-06-10T06:23:05;97890.81;;;20.04;nan
19108;BME280;9686;48.832;9.126;2023-06-10T06:25:31;97886.91;;;20.11;nan
19108;BME280;9686;48.832;9.126;2023-06-10T06:27:56;97885.75;;;20.17;nan
19108;BME280;9686;48.832;9.126;2023-06-10T06:30:21;97883.22;;;20.32;nan
19108;BME280;9686;48.832;9.126;2023-06-10T06:32:46;97889.03;;;20.39;nan
19108;BME280;9686;48.832;9.126;2023-06-10T06:35:12;97885.88;;;20.50;nan
19108;BME280;9686;48.832;9.126;2023-06-10T06:37:37;97882.28;;;20.51;nan
19108;BME280;9686;48.832;9.126;2023-06-10T06:40:03;97885.63;;;20.54;nan
19108;BME280;9686;48.832;9.126;2023-06-10T06:42:29;97886.34;;;20.58;nan
19108;BME280;9686;48.832;9.126;2023-06-10T06:44:54;97889.38;;;20.58;nan
19108;BME280;9686;48.832;9.126;2023-06-10T06:47:19;97892.72;;;21.04;nan
19108;BME280;9686;48.832;9.126;2023-06-10T06:49:47;97887.47;;;21.20;nan
19108;BME280;9686;48.832;9.126;2023-06-10T06:52:14;97884.19;;;21.32;nan
19108;BME280;9686;48.832;9.126;2023-06-10T06:54:40;97882.31;;;21.34;nan
19108;BME280;9686;48.832;9.126;2023-06-10T06:57:05;97886.00;;;21.47;nan
19108;BME280;9686;48.832;9.126;2023-06-10T06:59:32;97878.16;;;21.62;nan
19108;BME280;9686;48.832;9.126;2023-06-10T07:01:57;97883.28;;;21.65;nan
19108;BME280;9686;48.832;9.126;2023-06-10T07:04:23;97890.28;;;21.66;nan
19108;BME280;9686;48.832;9.126;2023-06-10T07:06:48;97885.81;;;21.82;nan
19108;BME280;9686;48.832;9.126;2023-06-10T07:09:14;97887.44;;;21.84;nan
19108;BME280;9686;48.832;9.126;2023-06-10T07:11:39;97887.38;;;21.86;nan
19108;BME280;9686;48.832;9.126;2023-06-10T07:14:04;97891.38;;;21.93;nan
19108;BME280;9686;48.832;9.126;2023-06-10T07:16:30;97895.75;;;21.94;nan
19108;BME280;9686;48.832;9.126;2023-06-10T07:18:55;97896.09;;;22.04;nan
19108;BME280;9686;48.832;9.126;2023-06-10T07:21:20;97896.19;;;22.18;nan
19108;BME280;9686;48.832;9.126;2023-06-10T07:23:47;97881.09;;;22.19;nan
19108;BME280;9686;48.832;9.126;2023-06-10T07:26:13;97891.53;;;22.22;nan
19108;BME280;9686;48.832;9.126;2023-06-10T07:28:41;97888.34;;;22.31;nan
19108;BME280;9686;48.832;9.126;2023-06-10T07:31:08;97885.94;;;22.42;nan
19108;BME280;9686;48.832;9.126;2023-06-10T07:33:33;97886.38;;;22.64;nan
19108;BME280;9686;48.832;9.126;2023-06-10T07:35:59;97884.19;;;22.71;nan
19108;BME280;9686;48.832;9.126;2023-06-10T07:38:25;97885.53;;;22.78;nan
19108;BME280;9686;48.832;9.126;2023-06-10T07:40:51;97884.75;;;22.76;nan
19108;BME280;9686;48.832;9.126;2023-06-10T07:43:16;97892.63;;;22.77;nan
19108;BME280;9686;48.832;9.126;2023-06-10T07:45:42;97891.69;;;22.78;nan
19108;BME280;9686;48.832;9.126;2023-06-10T07:48:08;97885.38;;;22.81;nan
19108;BME280;9686;48.832;9.126;2023-06-10T07:50:33;97879.25;;;22.79;nan
19108;BME280;9686;48.832;9.126;2023-06-10T07:52:58;97884.53;;;22.95;nan
19108;BME280;9686;48.832;9.126;2023-06-10T07:55:24;97888.78;;;23.12;nan
19108;BME280;9686;48.832;9.126;2023-06-10T07:57:51;97881.97;;;23.07;nan
19108;BME280;9686;48.832;9.126;2023-06-10T08:00:17;97892.63;;;23.22;nan
19108;BME280;9686;48.832;9.126;2023-06-10T08:02:42;97885.66;;;23.33;nan
19108;BME280;9686;48.832;9.126;2023-06-10T08:05:08;97887.56;;;23.46;nan
19108;BME280;9686;48.832;9.126;2023-06-10T08:07:33;97882.50;;;23.41;nan
19108;BME280;9686;48.832;9.126;2023-06-10T08:09:58;97880.25;;;23.49;nan
19108;BME280;9686;48.832;9.126;2023-06-10T08:12:24;97885.94;;;23.57;nan
19108;BME280;9686;48.832;9.126;2023-06-10T08:14:49;97877.88;;;23.59;nan
19108;BME280;9686;48.832;9.126;2023-06-10T08:17:14;97883.84;;;23.62;nan
19108;BME280;9686;48.832;9.126;2023-06-10T08:19:40;97873.69;;;23.69;nan
19108;BME280;9686;48.832;9.126;2023-06-10T08:22:05;97885.31;;;23.95;nan
19108;BME280;9686;48.832;9.126;2023-06-10T08:24:30;97880.72;;;23.97;nan
19108;BME280;9686;48.832;9.126;2023-06-10T08:26:56;97883.84;;;24.04;nan
19108;BME280;9686;48.832;9.126;2023-06-10T08:29:22;97874.91;;;24.05;nan
19108;BME280;9686;48.832;9.126;2023-06-10T08:31:47;97885.34;;;24.08;nan
19108;BME280;9686;48.832;9.126;2023-06-10T08:34:12;97886.53;;;24.16;nan
19108;BME280;9686;48.832;9.126;2023-06-10T08:36:38;97886.16;;;24.22;nan
19108;BME280;9686;48.832;9.126;2023-06-10T08:39:03;97889.59;;;24.10;nan
19108;BME280;9686;48.832;9.126;2023-06-10T08:41:30;97875.34;;;24.38;nan
19108;BME280;9686;48.832;9.126;2023-06-10T08:46:45;97877.59;;;24.44;nan
19108;BME280;9686;48.832;9.126;2023-06-10T08:49:10;97880.78;;;24.37;nan
19108;BME280;9686;48.832;9.126;2023-06-10T08:51:40;97880.59;;;24.52;nan
19108;BME280;9686;48.832;9.126;2023-06-10T08:54:13;97879.13;;;24.61;nan
19108;BME280;9686;48.832;9.126;2023-06-10T08:56:41;97865.50;;;24.78;nan
19108;BME280;9686;48.832;9.126;2023-06-10T08:59:08;97864.41;;;24.81;nan
19108;BME280;9686;48.832;9.126;2023-06-10T09:01:34;97876.31;;;25.02;nan
19108;BME280;9686;48.832;9.126;2023-06-10T09:04:00;97877.75;;;24.94;nan
19108;BME280;9686;48.832;9.126;2023-06-10T09:06:26;97875.06;;;24.94;nan
19108;BME280;9686;48.832;9.126;2023-06-10T09:08:51;97859.19;;;24.92;nan
19108;BME280;9686;48.832;9.126;2023-06-10T09:11:17;97861.25;;;25.01;nan
19108;BME280;9686;48.832;9.126;2023-06-10T09:13:42;97856.22;;;25.09;nan
19108;BME280;9686;48.832;9.126;2023-06-10T09:16:07;97856.94;;;25.24;nan
19108;BME280;9686;48.832;9.126;2023-06-10T09:18:34;97849.97;;;25.47;nan
19108;BME280;9686;48.832;9.126;2023-06-10T09:21:00;97854.75;;;25.67;nan
19108;BME280;9686;48.832;9.126;2023-06-10T09:23:25;97855.31;;;25.47;nan
19108;BME280;9686;48.832;9.126;2023-06-10T09:25:57;97848.69;;;25.89;nan
19108;BME280;9686;48.832;9.126;2023-06-10T09:28:23;97854.94;;;26.01;nan
19108;BME280;9686;48.832;9.126;2023-06-10T09:30:49;97855.41;;;25.95;nan
19108;BME280;9686;48.832;9.126;2023-06-10T09:33:15;97851.41;;;26.00;nan
19108;BME280;9686;48.832;9.126;2023-06-10T09:35:46;97848.56;;;26.15;nan
19108;BME280;9686;48.832;9.126;2023-06-10T09:38:13;97849.34;;;26.28;nan
19108;BME280;9686;48.832;9.126;2023-06-10T09:40:49;97849.69;;;26.47;nan
19108;BME280;9686;48.832;9.126;2023-06-10T09:43:15;97848.28;;;26.65;nan
19108;BME280;9686;48.832;9.126;2023-06-10T09:45:40;97849.50;;;26.61;nan
19108;BME280;9686;48.832;9.126;2023-06-10T09:48:05;97849.50;;;26.61;nan
19108;BME280;9686;48.832;9.126;2023-06-10T09:50:34;97841.47;;;26.72;nan
19108;BME280;9686;48.832;9.126;2023-06-10T09:53:00;97843.66;;;26.67;nan
19108;BME280;9686;48.832;9.126;2023-06-10T09:55:27;97839.06;;;26.69;nan
19108;BME280;9686;48.832;9.126;2023-06-10T09:57:53;97834.84;;;26.89;nan
19108;BME280;9686;48.832;9.126;2023-06-10T10:00:19;97836.69;;;27.00;nan
19108;BME280;9686;48.832;9.126;2023-06-10T10:02:52;97842.53;;;27.27;nan
19108;BME280;9686;48.832;9.126;2023-06-10T10:05:21;97839.38;;;27.33;nan
19108;BME280;9686;48.832;9.126;2023-06-10T10:07:47;97833.66;;;27.27;nan
19108;BME280;9686;48.832;9.126;2023-06-10T10:10:15;97837.69;;;27.10;nan
19108;BME280;9686;48.832;9.126;2023-06-10T10:12:42;97830.94;;;26.82;nan
19108;BME280;9686;48.832;9.126;2023-06-10T10:15:09;97835.41;;;26.70;nan
19108;BME280;9686;48.832;9.126;2023-06-10T10:17:39;97833.72;;;26.81;nan
19108;BME280;9686;48.832;9.126;2023-06-10T10:20:07;97827.25;;;26.61;nan
19108;BME280;9686;48.832;9.126;2023-06-10T10:22:39;97830.91;;;26.71;nan
19108;BME280;9686;48.832;9.126;2023-06-10T10:25:16;97823.41;;;26.98;nan
19108;BME280;9686;48.832;9.126;2023-06-10T10:27:45;97824.28;;;27.21;nan
19108;BME280;9686;48.832;9.126;2023-06-10T10:30:14;97824.78;;;27.38;nan
19108;BME280;9686;48.832;9.126;2023-06-10T10:32:54;97825.72;;;27.48;nan
19108;BME280;9686;48.832;9.126;2023-06-10T10:35:23;97816.06;;;27.56;nan
19108;BME280;9686;48.832;9.126;2023-06-10T10:37:54;97826.16;;;27.86;nan
19108;BME280;9686;48.832;9.126;2023-06-10T10:40:21;97832.13;;;27.90;nan
19108;BME280;9686;48.832;9.126;2023-06-10T10:42:48;97819.25;;;28.05;nan
19108;BME280;9686;48.832;9.126;2023-06-10T10:45:14;97813.56;;;27.98;nan
19108;BME280;9686;48.832;9.126;2023-06-10T10:47:41;97813.94;;;27.93;nan
19108;BME280;9686;48.832;9.126;2023-06-10T10:50:19;97822.78;;;27.73;nan
19108;BME280;9686;48.832;9.126;2023-06-10T10:55:18;97818.53;;;28.03;nan
19108;BME280;9686;48.832;9.126;2023-06-10T10:57:43;97817.03;;;28.10;nan
19108;BME280;9686;48.832;9.126;2023-06-10T11:00:09;97819.94;;;28.18;nan
19108;BME280;9686;48.832;9.126;2023-06-10T11:02:45;97813.03;;;28.15;nan
19108;BME280;9686;48.832;9.126;2023-06-10T11:05:15;97815.56;;;28.17;nan
19108;BME280;9686;48.832;9.126;2023-06-10T11:07:40;97815.97;;;28.12;nan
19108;BME280;9686;48.832;9.126;2023-06-10T11:10:16;97812.53;;;28.10;nan
19108;BME280;9686;48.832;9.126;2023-06-10T11:15:10;97797.94;;;28.56;nan
19108;BME280;9686;48.832;9.126;2023-06-10T11:17:36;97796.78;;;28.91;nan
19108;BME280;9686;48.832;9.126;2023-06-10T11:20:01;97799.72;;;29.18;nan
19108;BME280;9686;48.832;9.126;2023-06-10T11:22:27;97794.72;;;29.44;nan
19108;BME280;9686;48.832;9.126;2023-06-10T11:24:52;97798.94;;;29.06;nan
19108;BME280;9686;48.832;9.126;2023-06-10T11:27:18;97795.00;;;29.10;nan
19108;BME280;9686;48.832;9.126;2023-06-10T11:32:32;97802.00;;;28.71;nan
19108;BME280;9686;48.832;9.126;2023-06-10T11:34:58;97795.81;;;28.80;nan
19108;BME280;9686;48.832;9.126;2023-06-10T11:37:24;97793.88;;;29.43;nan
19108;BME280;9686;48.832;9.126;2023-06-10T11:39:53;97782.94;;;30.43;nan
19108;BME280;9686;48.832;9.126;2023-06-10T11:42:19;97785.94;;;31.61;nan
19108;BME280;9686;48.832;9.126;2023-06-10T11:44:52;97782.88;;;32.80;nan
19108;BME280;9686;48.832;9.126;2023-06-10T11:47:18;97780.16;;;33.91;nan
19108;BME280;9686;48.832;9.126;2023-06-10T11:49:45;97781.34;;;34.86;nan
19108;BME280;9686;48.832;9.126;2023-06-10T11:52:12;97778.75;;;36.18;nan
19108;BME280;9686;48.832;9.126;2023-06-10T11:54:38;97770.00;;;36.68;nan
19108;BME280;9686;48.832;9.126;2023-06-10T11:57:03;97772.31;;;37.53;nan
19108;BME280;9686;48.832;9.126;2023-06-10T11:59:30;97782.28;;;38.40;nan
19108;BME280;9686;48.832;9.126;2023-06-10T12:01:55;97778.19;;;39.34;nan
19108;BME280;9686;48.832;9.126;2023-06-10T12:04:21;97773.88;;;39.12;nan
19108;BME280;9686;48.832;9.126;2023-06-10T12:06:49;97764.28;;;39.64;nan
19108;BME280;9686;48.832;9.126;2023-06-10T12:09:25;97773.13;;;39.66;nan
19108;BME280;9686;48.832;9.126;2023-06-10T12:11:57;97768.97;;;39.83;nan
19108;BME280;9686;48.832;9.126;2023-06-10T12:14:55;97770.53;;;38.61;nan
19108;BME280;9686;48.832;9.126;2023-06-10T12:20:02;97768.88;;;36.17;nan
19108;BME280;9686;48.832;9.126;2023-06-10T12:22:44;97772.19;;;35.03;nan
19108;BME280;9686;48.832;9.126;2023-06-10T12:25:10;97765.47;;;34.18;nan
19108;BME280;9686;48.832;9.126;2023-06-10T12:27:37;97768.56;;;33.30;nan
19108;BME280;9686;48.832;9.126;2023-06-10T12:30:04;97765.88;;;32.88;nan
19108;BME280;9686;48.832;9.126;2023-06-10T12:32:41;97769.91;;;32.05;nan
19108;BME280;9686;48.832;9.126;2023-06-10T12:35:08;97763.91;;;31.75;nan
19108;BME280;9686;48.832;9.126;2023-06-10T12:37:35;97769.88;;;31.42;nan
19108;BME280;9686;48.832;9.126;2023-06-10T12:40:02;97764.47;;;31.24;nan
19108;BME280;9686;48.832;9.126;2023-06-10T12:42:29;97754.50;;;30.97;nan
19108;BME280;9686;48.832;9.126;2023-06-10T12:44:55;97762.59;;;30.87;nan
19108;BME280;9686;48.832;9.126;2023-06-10T12:47:29;97768.88;;;30.59;nan
19108;BME280;9686;48.832;9.126;2023-06-10T12:49:57;97760.41;;;30.54;nan
19108;BME280;9686;48.832;9.126;2023-06-10T12:52:23;97762.25;;;30.53;nan
19108;BME280;9686;48.832;9.126;2023-06-10T12:54:49;97757.31;;;30.49;nan
19108;BME280;9686;48.832;9.126;2023-06-10T12:57:14;97761.66;;;30.59;nan
19108;BME280;9686;48.832;9.126;2023-06-10T12:59:39;97758.69;;;30.72;nan
19108;BME280;9686;48.832;9.126;2023-06-10T13:02:05;97761.81;;;30.67;nan
19108;BME280;9686;48.832;9.126;2023-06-10T13:04:30;97762.50;;;30.69;nan
19108;BME280;9686;48.832;9.126;2023-06-10T13:06:56;97754.03;;;30.74;nan
19108;BME280;9686;48.832;9.126;2023-06-10T13:09:21;97753.88;;;30.66;nan
19108;BME280;9686;48.832;9.126;2023-06-10T13:11:46;97753.91;;;30.93;nan
19108;BME280;9686;48.832;9.126;2023-06-10T13:14:12;97753.59;;;31.06;nan
19108;BME280;9686;48.832;9.126;2023-06-10T13:16:37;97744.31;;;30.91;nan
19108;BME280;9686;48.832;9.126;2023-06-10T13:19:04;97752.47;;;30.62;nan
19108;BME280;9686;48.832;9.126;2023-06-10T13:21:31;97753.94;;;30.18;nan
19108;BME280;9686;48.832;9.126;2023-06-10T13:23:56;97751.53;;;30.15;nan
19108;BME280;9686;48.832;9.126;2023-06-10T13:26:22;97748.84;;;29.76;nan
19108;BME280;9686;48.832;9.126;2023-06-10T13:28:47;97733.13;;;29.62;nan
19108;BME280;9686;48.832;9.126;2023-06-10T13:31:12;97735.50;;;29.65;nan
19108;BME280;9686;48.832;9.126;2023-06-10T13:33:38;97744.72;;;29.82;nan
19108;BME280;9686;48.832;9.126;2023-06-10T13:36:03;97739.38;;;30.01;nan
19108;BME280;9686;48.832;9.126;2023-06-10T13:38:29;97731.28;;;29.91;nan
19108;BME280;9686;48.832;9.126;2023-06-10T13:40:54;97725.06;;;30.00;nan
19108;BME280;9686;48.832;9.126;2023-06-10T13:43:19;97727.63;;;30.12;nan
19108;BME280;9686;48.832;9.126;2023-06-10T13:45:45;97732.03;;;30.22;nan
19108;BME280;9686;48.832;9.126;2023-06-10T13:48:10;97737.09;;;30.16;nan